sensor_id;sensor_type;location;lat;lon;timestamp;pressure;altitude;pressure_sealevel;temperature;humidity
76998;BME280;65930;48.874;10.734;2022-12-18T00:01:18;97095.44;;;-7.29;83.57
76998;BME280;65930;48.874;10.734;2022-12-18T00:03:44;97083.34;;;-7.22;83.52
76998;BME280;65930;48.874;10.734;2022-12-18T00:06:10;97080.00;;;-7.44;84.02
76998;BME280;65930;48.874;10.734;2022-12-18T00:08:37;97087.00;;;-7.48;84.41
76998;BME280;65930;48.874;10.734;2022-12-18T00:11:12;97090.72;;;-7.54;84.55
76998;BME280;65930;48.874;10.734;2022-12-18T00:13:38;97095.56;;;-7.51;84.24
76998;BME280;65930;48.874;10.734;2022-12-18T00:16:07;97095.50;;;-7.66;84.71
76998;BME280;65930;48.874;10.734;2022-12-18T00:18:33;97096.00;;;-7.69;85.15
76998;BME280;65930;48.874;10.734;2022-12-18T00:21:00;97112.88;;;-7.79;85.29
76998;BME280;65930;48.874;10.734;2022-12-18T00:23:27;97120.22;;;-7.69;84.64
76998;BME280;65930;48.874;10.734;2022-12-18T00:25:53;97125.09;;;-7.66;84.88
76998;BME280;65930;48.874;10.734;2022-12-18T00:28:18;97119.72;;;-7.66;83.70
76998;BME280;65930;48.874;10.734;2022-12-18T00:30:44;97131.53;;;-7.67;84.50
76998;BME280;65930;48.874;10.734;2022-12-18T00:33:09;97123.69;;;-7.74;84.55
76998;BME280;65930;48.874;10.734;2022-12-18T00:35:35;97116.06;;;-7.87;84.77
76998;BME280;65930;48.874;10.734;2022-12-18T00:38:00;97121.88;;;-8.00;85.10
76998;BME280;65930;48.874;10.734;2022-12-18T00:40:26;97123.69;;;-8.06;85.50
76998;BME280;65930;48.874;10.734;2022-12-18T00:42:51;97106.47;;;-8.10;84.94
76998;BME280;65930;48.874;10.734;2022-12-18T00:45:27;97110.22;;;-8.11;85.25
76998;BME280;65930;48.874;10.734;2022-12-18T00:47:54;97100.41;;;-8.27;85.01
76998;BME280;65930;48.874;10.734;2022-12-18T00:50:20;97104.34;;;-8.39;85.50
76998;BME280;65930;48.874;10.734;2022-12-18T00:52:46;97117.06;;;-8.30;84.70
76998;BME280;65930;48.874;10.734;2022-12-18T00:55:12;97121.91;;;-8.59;84.89
76998;BME280;65930;48.874;10.734;2022-12-18T00:57:38;97119.22;;;-8.59;85.49
76998;BME280;65930;48.874;10.734;2022-12-18T01:00:05;97120.00;;;-8.58;85.31
76998;BME280;65930;48.874;10.734;2022-12-18T01:02:31;97118.53;;;-8.49;85.07
76998;BME280;65930;48.874;10.734;2022-12-18T01:04:57;97127.94;;;-8.73;85.10
76998;BME280;65930;48.874;10.734;2022-12-18T01:07:22;97121.81;;;-8.69;85.68
76998;BME280;65930;48.874;10.734;2022-12-18T01:09:48;97125.38;;;-8.58;85.12
76998;BME280;65930;48.874;10.734;2022-12-18T01:12:13;97139.19;;;-8.50;84.59
76998;BME280;65930;48.874;10.734;2022-12-18T01:14:39;97141.63;;;-8.48;84.36
76998;BME280;65930;48.874;10.734;2022-12-18T01:17:04;97138.94;;;-8.48;83.69
76998;BME280;65930;48.874;10.734;2022-12-18T01:19:30;97140.44;;;-8.57;84.27
76998;BME280;65930;48.874;10.734;2022-12-18T01:21:56;97152.16;;;-8.68;84.11
76998;BME280;65930;48.874;10.734;2022-12-18T01:24:21;97145.56;;;-8.56;84.12
76998;BME280;65930;48.874;10.734;2022-12-18T01:26:47;97156.63;;;-8.52;83.17
76998;BME280;65930;48.874;10.734;2022-12-18T01:29:13;97152.25;;;-8.58;83.24
76998;BME280;65930;48.874;10.734;2022-12-18T01:31:41;97147.00;;;-8.48;83.00
76998;BME280;65930;48.874;10.734;2022-12-18T01:34:06;97149.13;;;-8.50;82.98
76998;BME280;65930;48.874;10.734;2022-12-18T01:36:34;97158.75;;;-8.54;82.46
76998;BME280;65930;48.874;10.734;2022-12-18T01:39:05;97162.81;;;-8.52;82.97
76998;BME280;65930;48.874;10.734;2022-12-18T01:41:33;97160.81;;;-8.61;83.44
76998;BME280;65930;48.874;10.734;2022-12-18T01:47:32;97162.63;;;-8.67;83.46
76998;BME280;65930;48.874;10.734;2022-12-18T01:50:04;97160.84;;;-8.83;83.47
76998;BME280;65930;48.874;10.734;2022-12-18T01:52:32;97163.22;;;-8.86;84.05
76998;BME280;65930;48.874;10.734;2022-12-18T01:55:00;97161.16;;;-8.79;84.00
76998;BME280;65930;48.874;10.734;2022-12-18T01:57:28;97160.59;;;-8.81;83.58
76998;BME280;65930;48.874;10.734;2022-12-18T02:00:00;97170.16;;;-8.69;83.04
76998;BME280;65930;48.874;10.734;2022-12-18T02:02:28;97173.81;;;-8.75;82.70
76998;BME280;65930;48.874;10.734;2022-12-18T02:04:54;97177.16;;;-8.68;83.01
76998;BME280;65930;48.874;10.734;2022-12-18T02:07:32;97170.50;;;-8.60;82.24
76998;BME280;65930;48.874;10.734;2022-12-18T02:10:23;97175.53;;;-8.42;82.64
76998;BME280;65930;48.874;10.734;2022-12-18T02:13:02;97174.03;;;-8.33;81.00
76998;BME280;65930;48.874;10.734;2022-12-18T02:18:19;97182.09;;;-8.33;81.19
76998;BME280;65930;48.874;10.734;2022-12-18T02:28:59;97188.75;;;-8.62;82.36
76998;BME280;65930;48.874;10.734;2022-12-18T02:31:30;97179.75;;;-8.51;82.33
76998;BME280;65930;48.874;10.734;2022-12-18T02:34:02;97171.03;;;-8.63;82.15
76998;BME280;65930;48.874;10.734;2022-12-18T02:36:32;97173.59;;;-8.73;82.91
76998;BME280;65930;48.874;10.734;2022-12-18T02:39:02;97172.72;;;-8.79;83.18
76998;BME280;65930;48.874;10.734;2022-12-18T02:41:29;97178.38;;;-8.75;82.86
76998;BME280;65930;48.874;10.734;2022-12-18T02:43:58;97187.63;;;-8.66;82.53
76998;BME280;65930;48.874;10.734;2022-12-18T02:46:35;97182.94;;;-8.76;83.06
76998;BME280;65930;48.874;10.734;2022-12-18T02:54:55;97191.47;;;-8.57;83.02
76998;BME280;65930;48.874;10.734;2022-12-18T03:00:08;97195.97;;;-8.41;82.15
76998;BME280;65930;48.874;10.734;2022-12-18T03:05:37;97183.88;;;-8.65;82.69
76998;BME280;65930;48.874;10.734;2022-12-18T03:08:14;97178.91;;;-8.78;83.75
76998;BME280;65930;48.874;10.734;2022-12-18T03:10:49;97177.28;;;-8.79;83.88
76998;BME280;65930;48.874;10.734;2022-12-18T03:13:33;97172.34;;;-8.87;83.90
76998;BME280;65930;48.874;10.734;2022-12-18T03:16:03;97184.34;;;-8.73;84.76
76998;BME280;65930;48.874;10.734;2022-12-18T03:18:42;97183.75;;;-8.75;84.58
76998;BME280;65930;48.874;10.734;2022-12-18T03:21:14;97173.53;;;-8.78;84.69
76998;BME280;65930;48.874;10.734;2022-12-18T03:23:47;97178.78;;;-8.88;85.13
76998;BME280;65930;48.874;10.734;2022-12-18T03:26:18;97205.53;;;-8.72;85.21
76998;BME280;65930;48.874;10.734;2022-12-18T03:28:51;97191.81;;;-8.75;85.24
76998;BME280;65930;48.874;10.734;2022-12-18T03:31:19;97211.03;;;-8.62;84.73
76998;BME280;65930;48.874;10.734;2022-12-18T03:33:55;97202.88;;;-8.50;84.72
76998;BME280;65930;48.874;10.734;2022-12-18T03:36:22;97188.38;;;-8.49;84.36
76998;BME280;65930;48.874;10.734;2022-12-18T03:38:48;97174.97;;;-8.44;84.43
76998;BME280;65930;48.874;10.734;2022-12-18T03:44:43;97174.19;;;-8.44;84.39
76998;BME280;65930;48.874;10.734;2022-12-18T03:52:50;97174.59;;;-8.31;84.79
76998;BME280;65930;48.874;10.734;2022-12-18T03:55:21;97186.63;;;-8.33;85.25
76998;BME280;65930;48.874;10.734;2022-12-18T03:57:49;97181.03;;;-8.32;85.36
76998;BME280;65930;48.874;10.734;2022-12-18T04:00:18;97187.78;;;-8.24;84.97
76998;BME280;65930;48.874;10.734;2022-12-18T04:02:51;97192.91;;;-8.23;84.92
76998;BME280;65930;48.874;10.734;2022-12-18T04:05:19;97188.06;;;-8.26;85.45
76998;BME280;65930;48.874;10.734;2022-12-18T04:07:50;97187.59;;;-8.18;84.88
76998;BME280;65930;48.874;10.734;2022-12-18T04:10:17;97191.78;;;-8.27;85.55
76998;BME280;65930;48.874;10.734;2022-12-18T04:12:43;97193.25;;;-8.14;84.74
76998;BME280;65930;48.874;10.734;2022-12-18T04:15:10;97189.47;;;-8.18;85.54
76998;BME280;65930;48.874;10.734;2022-12-18T04:17:36;97191.97;;;-8.07;84.68
76998;BME280;65930;48.874;10.734;2022-12-18T04:20:02;97180.69;;;-8.09;85.31
76998;BME280;65930;48.874;10.734;2022-12-18T04:22:28;97188.63;;;-7.92;84.66
76998;BME280;65930;48.874;10.734;2022-12-18T04:24:53;97199.09;;;-7.95;84.38
76998;BME280;65930;48.874;10.734;2022-12-18T04:27:19;97196.09;;;-7.99;84.51
76998;BME280;65930;48.874;10.734;2022-12-18T04:29:44;97192.03;;;-8.02;85.13
76998;BME280;65930;48.874;10.734;2022-12-18T04:32:10;97194.22;;;-7.98;85.32
76998;BME280;65930;48.874;10.734;2022-12-18T04:34:35;97186.22;;;-7.93;85.17
76998;BME280;65930;48.874;10.734;2022-12-18T04:37:01;97199.13;;;-7.90;85.00
76998;BME280;65930;48.874;10.734;2022-12-18T04:39:30;97211.56;;;-7.84;84.87
76998;BME280;65930;48.874;10.734;2022-12-18T04:41:55;97219.16;;;-7.76;84.68
76998;BME280;65930;48.874;10.734;2022-12-18T04:44:21;97209.94;;;-7.85;84.74
76998;BME280;65930;48.874;10.734;2022-12-18T04:46:46;97199.38;;;-7.92;85.20
76998;BME280;65930;48.874;10.734;2022-12-18T04:49:15;97218.06;;;-7.80;84.91
76998;BME280;65930;48.874;10.734;2022-12-18T04:51:40;97225.66;;;-7.72;85.22
76998;BME280;65930;48.874;10.734;2022-12-18T04:54:06;97206.72;;;-7.82;85.59
76998;BME280;65930;48.874;10.734;2022-12-18T04:56:31;97220.75;;;-7.80;85.39
76998;BME280;65930;48.874;10.734;2022-12-18T04:58:57;97220.84;;;-7.70;85.02
76998;BME280;65930;48.874;10.734;2022-12-18T05:01:22;97221.38;;;-7.68;85.11
76998;BME280;65930;48.874;10.734;2022-12-18T05:03:48;97214.88;;;-7.72;85.09
76998;BME280;65930;48.874;10.734;2022-12-18T05:06:13;97212.75;;;-7.70;85.29
76998;BME280;65930;48.874;10.734;2022-12-18T05:08:39;97214.63;;;-7.71;85.01
76998;BME280;65930;48.874;10.734;2022-12-18T05:11:13;97212.75;;;-7.70;85.55
76998;BME280;65930;48.874;10.734;2022-12-18T05:13:42;97215.50;;;-7.60;84.66
76998;BME280;65930;48.874;10.734;2022-12-18T05:16:08;97214.97;;;-7.62;85.27
76998;BME280;65930;48.874;10.734;2022-12-18T05:18:34;97218.47;;;-7.62;85.37
76998;BME280;65930;48.874;10.734;2022-12-18T05:21:00;97210.66;;;-7.63;85.43
76998;BME280;65930;48.874;10.734;2022-12-18T05:23:26;97221.75;;;-7.54;84.94
76998;BME280;65930;48.874;10.734;2022-12-18T05:26:00;97226.97;;;-7.43;84.51
76998;BME280;65930;48.874;10.734;2022-12-18T05:28:28;97219.41;;;-7.46;84.82
76998;BME280;65930;48.874;10.734;2022-12-18T05:30:56;97221.75;;;-7.54;84.96
76998;BME280;65930;48.874;10.734;2022-12-18T05:33:25;97229.63;;;-7.48;85.21
76998;BME280;65930;48.874;10.734;2022-12-18T05:35:55;97236.69;;;-7.42;84.73
76998;BME280;65930;48.874;10.734;2022-12-18T05:38:22;97232.06;;;-7.41;84.33
76998;BME280;65930;48.874;10.734;2022-12-18T05:40:49;97217.56;;;-7.40;84.72
76998;BME280;65930;48.874;10.734;2022-12-18T05:43:15;97222.13;;;-7.41;84.57
76998;BME280;65930;48.874;10.734;2022-12-18T05:45:41;97202.91;;;-7.54;85.11
76998;BME280;65930;48.874;10.734;2022-12-18T05:48:08;97214.53;;;-7.49;85.09
76998;BME280;65930;48.874;10.734;2022-12-18T05:50:39;97216.47;;;-7.44;84.86
76998;BME280;65930;48.874;10.734;2022-12-18T05:53:06;97211.59;;;-7.47;85.29
76998;BME280;65930;48.874;10.734;2022-12-18T05:55:36;97207.13;;;-7.32;84.91
76998;BME280;65930;48.874;10.734;2022-12-18T05:58:03;97213.06;;;-7.30;84.48
76998;BME280;65930;48.874;10.734;2022-12-18T06:00:30;97206.94;;;-7.20;84.65
76998;BME280;65930;48.874;10.734;2022-12-18T06:02:58;97205.03;;;-7.25;84.71
76998;BME280;65930;48.874;10.734;2022-12-18T06:05:24;97210.91;;;-7.28;84.93
76998;BME280;65930;48.874;10.734;2022-12-18T06:07:50;97219.25;;;-7.29;84.77
76998;BME280;65930;48.874;10.734;2022-12-18T06:10:15;97222.44;;;-7.32;85.24
76998;BME280;65930;48.874;10.734;2022-12-18T06:12:41;97230.88;;;-7.24;84.50
76998;BME280;65930;48.874;10.734;2022-12-18T06:15:07;97231.41;;;-7.22;84.81
76998;BME280;65930;48.874;10.734;2022-12-18T06:17:33;97241.91;;;-7.25;85.39
76998;BME280;65930;48.874;10.734;2022-12-18T06:19:59;97241.09;;;-7.26;84.99
76998;BME280;65930;48.874;10.734;2022-12-18T06:22:25;97251.31;;;-7.23;85.13
76998;BME280;65930;48.874;10.734;2022-12-18T06:24:51;97238.44;;;-7.21;85.31
76998;BME280;65930;48.874;10.734;2022-12-18T06:27:16;97243.59;;;-7.14;85.06
76998;BME280;65930;48.874;10.734;2022-12-18T06:29:42;97248.75;;;-7.07;84.93
76998;BME280;65930;48.874;10.734;2022-12-18T06:32:08;97259.00;;;-7.04;84.55
76998;BME280;65930;48.874;10.734;2022-12-18T06:34:33;97275.97;;;-7.04;85.26
76998;BME280;65930;48.874;10.734;2022-12-18T06:36:59;97266.84;;;-6.98;84.74
76998;BME280;65930;48.874;10.734;2022-12-18T06:39:27;97255.75;;;-7.06;84.84
76998;BME280;65930;48.874;10.734;2022-12-18T06:41:52;97240.09;;;-7.15;84.79
76998;BME280;65930;48.874;10.734;2022-12-18T06:44:18;97255.22;;;-7.03;85.04
76998;BME280;65930;48.874;10.734;2022-12-18T06:46:44;97258.00;;;-6.93;84.50
76998;BME280;65930;48.874;10.734;2022-12-18T06:49:09;97250.47;;;-6.91;84.80
76998;BME280;65930;48.874;10.734;2022-12-18T06:51:35;97247.72;;;-7.01;85.05
76998;BME280;65930;48.874;10.734;2022-12-18T06:54:00;97250.91;;;-7.04;85.22
76998;BME280;65930;48.874;10.734;2022-12-18T06:56:26;97255.03;;;-6.97;85.55
76998;BME280;65930;48.874;10.734;2022-12-18T06:58:52;97248.53;;;-7.01;85.44
76998;BME280;65930;48.874;10.734;2022-12-18T07:01:18;97254.75;;;-7.00;85.56
76998;BME280;65930;48.874;10.734;2022-12-18T07:03:44;97251.84;;;-6.89;85.18
76998;BME280;65930;48.874;10.734;2022-12-18T07:06:17;97244.53;;;-6.93;84.85
76998;BME280;65930;48.874;10.734;2022-12-18T07:08:45;97245.59;;;-6.94;85.59
76998;BME280;65930;48.874;10.734;2022-12-18T07:11:11;97249.88;;;-6.98;85.62
76998;BME280;65930;48.874;10.734;2022-12-18T07:13:40;97255.88;;;-6.91;85.64
76998;BME280;65930;48.874;10.734;2022-12-18T07:16:12;97262.06;;;-6.86;85.08
76998;BME280;65930;48.874;10.734;2022-12-18T07:18:37;97259.66;;;-6.87;85.02
76998;BME280;65930;48.874;10.734;2022-12-18T07:21:09;97254.63;;;-6.74;84.73
76998;BME280;65930;48.874;10.734;2022-12-18T07:23:35;97266.75;;;-6.71;85.05
76998;BME280;65930;48.874;10.734;2022-12-18T07:26:12;97260.81;;;-6.73;85.42
76998;BME280;65930;48.874;10.734;2022-12-18T07:28:39;97252.81;;;-6.63;84.41
76998;BME280;65930;48.874;10.734;2022-12-18T07:31:11;97263.25;;;-6.67;84.65
76998;BME280;65930;48.874;10.734;2022-12-18T07:33:37;97272.72;;;-6.64;83.91
76998;BME280;65930;48.874;10.734;2022-12-18T07:36:06;97267.88;;;-6.62;84.12
76998;BME280;65930;48.874;10.734;2022-12-18T07:38:32;97263.00;;;-6.65;84.94
76998;BME280;65930;48.874;10.734;2022-12-18T07:41:07;97282.72;;;-6.59;84.16
76998;BME280;65930;48.874;10.734;2022-12-18T07:43:34;97277.06;;;-6.53;84.77
76998;BME280;65930;48.874;10.734;2022-12-18T07:46:01;97269.31;;;-6.49;84.54
76998;BME280;65930;48.874;10.734;2022-12-18T07:48:27;97285.19;;;-6.48;83.77
76998;BME280;65930;48.874;10.734;2022-12-18T07:50:53;97286.34;;;-6.34;84.16
76998;BME280;65930;48.874;10.734;2022-12-18T07:53:18;97292.03;;;-6.30;83.97
76998;BME280;65930;48.874;10.734;2022-12-18T07:55:44;97287.97;;;-6.33;83.70
76998;BME280;65930;48.874;10.734;2022-12-18T07:58:09;97302.06;;;-6.20;83.63
76998;BME280;65930;48.874;10.734;2022-12-18T08:00:35;97312.53;;;-6.24;83.69
76998;BME280;65930;48.874;10.734;2022-12-18T08:03:01;97303.38;;;-6.23;83.43
76998;BME280;65930;48.874;10.734;2022-12-18T08:05:27;97318.75;;;-6.24;83.58
76998;BME280;65930;48.874;10.734;2022-12-18T08:07:53;97318.72;;;-6.29;84.13
76998;BME280;65930;48.874;10.734;2022-12-18T08:10:20;97317.97;;;-6.19;83.81
76998;BME280;65930;48.874;10.734;2022-12-18T08:12:49;97321.13;;;-6.32;83.55
76998;BME280;65930;48.874;10.734;2022-12-18T08:15:15;97324.69;;;-6.27;83.55
76998;BME280;65930;48.874;10.734;2022-12-18T08:17:40;97312.81;;;-6.26;82.75
76998;BME280;65930;48.874;10.734;2022-12-18T08:20:06;97314.13;;;-6.33;83.57
76998;BME280;65930;48.874;10.734;2022-12-18T08:22:34;97319.78;;;-6.35;83.63
76998;BME280;65930;48.874;10.734;2022-12-18T08:25:03;97305.22;;;-6.34;83.41
76998;BME280;65930;48.874;10.734;2022-12-18T08:27:29;97317.13;;;-6.25;83.64
76998;BME280;65930;48.874;10.734;2022-12-18T08:29:54;97306.03;;;-6.33;83.73
76998;BME280;65930;48.874;10.734;2022-12-18T08:32:20;97304.44;;;-6.24;83.69
76998;BME280;65930;48.874;10.734;2022-12-18T08:34:46;97288.28;;;-6.24;84.13
76998;BME280;65930;48.874;10.734;2022-12-18T08:37:14;97299.31;;;-6.31;83.95
76998;BME280;65930;48.874;10.734;2022-12-18T08:39:40;97296.38;;;-6.19;83.35
76998;BME280;65930;48.874;10.734;2022-12-18T08:42:05;97292.88;;;-6.19;83.60
76998;BME280;65930;48.874;10.734;2022-12-18T08:44:49;97278.88;;;-6.21;83.84
76998;BME280;65930;48.874;10.734;2022-12-18T08:47:15;97293.94;;;-6.26;83.84
76998;BME280;65930;48.874;10.734;2022-12-18T08:49:40;97294.53;;;-6.13;83.47
76998;BME280;65930;48.874;10.734;2022-12-18T08:52:06;97279.94;;;-6.17;83.65
76998;BME280;65930;48.874;10.734;2022-12-18T08:54:31;97292.91;;;-6.09;83.01
76998;BME280;65930;48.874;10.734;2022-12-18T08:56:57;97295.31;;;-6.18;83.88
76998;BME280;65930;48.874;10.734;2022-12-18T08:59:22;97291.25;;;-6.26;83.81
76998;BME280;65930;48.874;10.734;2022-12-18T09:01:48;97289.88;;;-6.28;83.79
76998;BME280;65930;48.874;10.734;2022-12-18T09:04:14;97287.16;;;-6.33;83.77
76998;BME280;65930;48.874;10.734;2022-12-18T09:06:40;97297.66;;;-6.37;83.74
76998;BME280;65930;48.874;10.734;2022-12-18T09:09:05;97305.53;;;-6.25;84.00
76998;BME280;65930;48.874;10.734;2022-12-18T09:11:32;97301.25;;;-6.21;83.53
76998;BME280;65930;48.874;10.734;2022-12-18T09:14:00;97292.38;;;-6.16;82.98
76998;BME280;65930;48.874;10.734;2022-12-18T09:16:28;97292.81;;;-6.30;83.46
76998;BME280;65930;48.874;10.734;2022-12-18T09:18:58;97287.19;;;-6.23;83.81
76998;BME280;65930;48.874;10.734;2022-12-18T09:21:29;97299.41;;;-6.05;83.25
76998;BME280;65930;48.874;10.734;2022-12-18T09:23:56;97293.78;;;-5.99;83.06
76998;BME280;65930;48.874;10.734;2022-12-18T09:26:23;97289.47;;;-5.85;83.09
76998;BME280;65930;48.874;10.734;2022-12-18T09:28:50;97308.69;;;-5.66;82.59
76998;BME280;65930;48.874;10.734;2022-12-18T09:31:17;97294.66;;;-5.58;82.27
76998;BME280;65930;48.874;10.734;2022-12-18T09:33:43;97297.91;;;-5.56;81.50
76998;BME280;65930;48.874;10.734;2022-12-18T09:36:14;97286.28;;;-5.61;81.59
76998;BME280;65930;48.874;10.734;2022-12-18T09:38:41;97279.00;;;-5.51;81.88
76998;BME280;65930;48.874;10.734;2022-12-18T09:46:44;97283.59;;;-5.46;81.34
76998;BME280;65930;48.874;10.734;2022-12-18T09:49:16;97292.00;;;-5.32;81.70
76998;BME280;65930;48.874;10.734;2022-12-18T09:51:45;97277.94;;;-5.19;81.11
76998;BME280;65930;48.874;10.734;2022-12-18T09:54:37;97273.06;;;-5.38;80.84
76998;BME280;65930;48.874;10.734;2022-12-18T09:57:15;97276.03;;;-5.49;81.03
76998;BME280;65930;48.874;10.734;2022-12-18T09:59:49;97279.53;;;-5.44;81.15
76998;BME280;65930;48.874;10.734;2022-12-18T10:02:24;97273.88;;;-5.42;80.95
76998;BME280;65930;48.874;10.734;2022-12-18T10:06:05;97264.13;;;-5.58;82.08
76998;BME280;65930;48.874;10.734;2022-12-18T10:08:17;97261.72;;;-5.55;80.94
76998;BME280;65930;48.874;10.734;2022-12-18T10:10:51;97260.38;;;-5.52;82.09
76998;BME280;65930;48.874;10.734;2022-12-18T10:13:24;97245.53;;;-5.35;81.46
76998;BME280;65930;48.874;10.734;2022-12-18T10:16:09;97256.59;;;-5.41;80.73
76998;BME280;65930;48.874;10.734;2022-12-18T10:19:13;97261.44;;;-5.63;81.24
76998;BME280;65930;48.874;10.734;2022-12-18T10:24:49;97267.66;;;-5.53;81.62
76998;BME280;65930;48.874;10.734;2022-12-18T10:27:25;97271.47;;;-5.18;80.92
76998;BME280;65930;48.874;10.734;2022-12-18T10:29:51;97270.91;;;-5.25;80.95
76998;BME280;65930;48.874;10.734;2022-12-18T10:32:25;97281.44;;;-5.29;80.50
76998;BME280;65930;48.874;10.734;2022-12-18T10:34:56;97288.19;;;-5.11;80.83
76998;BME280;65930;48.874;10.734;2022-12-18T10:37:25;97293.59;;;-5.11;80.84
76998;BME280;65930;48.874;10.734;2022-12-18T10:42:34;97314.16;;;-4.95;79.91
76998;BME280;65930;48.874;10.734;2022-12-18T10:45:22;97300.63;;;-4.95;79.65
76998;BME280;65930;48.874;10.734;2022-12-18T10:47:50;97310.38;;;-5.04;80.34
76998;BME280;65930;48.874;10.734;2022-12-18T10:52:57;97299.00;;;-4.76;79.42
76998;BME280;65930;48.874;10.734;2022-12-18T10:55:32;97294.66;;;-4.72;79.58
76998;BME280;65930;48.874;10.734;2022-12-18T10:58:24;97308.75;;;-4.95;79.85
76998;BME280;65930;48.874;10.734;2022-12-18T11:01:17;97300.09;;;-4.97;79.54
76998;BME280;65930;48.874;10.734;2022-12-18T11:04:07;97281.72;;;-5.00;79.64
76998;BME280;65930;48.874;10.734;2022-12-18T11:06:33;97278.75;;;-5.14;80.09
76998;BME280;65930;48.874;10.734;2022-12-18T11:09:19;97268.19;;;-5.46;81.15
76998;BME280;65930;48.874;10.734;2022-12-18T11:11:57;97266.31;;;-5.40;82.13
76998;BME280;65930;48.874;10.734;2022-12-18T11:14:34;97265.22;;;-5.54;82.38
76998;BME280;65930;48.874;10.734;2022-12-18T11:17:23;97276.31;;;-5.36;82.42
76998;BME280;65930;48.874;10.734;2022-12-18T11:19:56;97272.25;;;-5.43;81.75
76998;BME280;65930;48.874;10.734;2022-12-18T11:22:26;97271.19;;;-5.42;82.09
76998;BME280;65930;48.874;10.734;2022-12-18T11:25:25;97257.94;;;-5.54;81.61
76998;BME280;65930;48.874;10.734;2022-12-18T11:28:05;97275.19;;;-5.60;82.37
76998;BME280;65930;48.874;10.734;2022-12-18T11:30:54;97254.72;;;-5.51;82.09
76998;BME280;65930;48.874;10.734;2022-12-18T11:33:25;97266.59;;;-5.52;82.00
76998;BME280;65930;48.874;10.734;2022-12-18T11:36:00;97265.50;;;-5.36;81.82
76998;BME280;65930;48.874;10.734;2022-12-18T11:38:39;97254.16;;;-5.22;80.55
76998;BME280;65930;48.874;10.734;2022-12-18T11:41:37;97257.41;;;-5.30;81.25
76998;BME280;65930;48.874;10.734;2022-12-18T11:49:56;97254.97;;;-4.92;79.37
76998;BME280;65930;48.874;10.734;2022-12-18T11:52:43;97248.19;;;-4.84;79.62
76998;BME280;65930;48.874;10.734;2022-12-18T11:55:49;97249.81;;;-5.08;80.14
76998;BME280;65930;48.874;10.734;2022-12-18T12:06:24;97242.00;;;-5.30;80.76
76998;BME280;65930;48.874;10.734;2022-12-18T12:20:13;97243.34;;;-4.92;79.81
76998;BME280;65930;48.874;10.734;2022-12-18T12:25:37;97243.06;;;-4.96;79.63
76998;BME280;65930;48.874;10.734;2022-12-18T12:36:20;97220.63;;;-4.91;79.39
76998;BME280;65930;48.874;10.734;2022-12-18T12:38:57;97228.16;;;-4.78;79.81
76998;BME280;65930;48.874;10.734;2022-12-18T12:41:31;97227.13;;;-4.92;80.28
76998;BME280;65930;48.874;10.734;2022-12-18T12:44:32;97233.03;;;-4.75;79.98
76998;BME280;65930;48.874;10.734;2022-12-18T12:47:07;97216.78;;;-4.70;79.23
76998;BME280;65930;48.874;10.734;2022-12-18T12:49:38;97211.41;;;-4.85;79.74
76998;BME280;65930;48.874;10.734;2022-12-18T12:52:10;97210.66;;;-5.06;79.85
76998;BME280;65930;48.874;10.734;2022-12-18T12:54:44;97217.97;;;-5.32;81.32
76998;BME280;65930;48.874;10.734;2022-12-18T13:07:20;97207.47;;;-5.33;81.10
76998;BME280;65930;48.874;10.734;2022-12-18T13:16:09;97203.41;;;-5.30;81.40
76998;BME280;65930;48.874;10.734;2022-12-18T13:18:52;97200.16;;;-5.38;81.04
76998;BME280;65930;48.874;10.734;2022-12-18T13:21:32;97199.63;;;-5.29;81.63
76998;BME280;65930;48.874;10.734;2022-12-18T13:24:44;97196.91;;;-5.24;80.86
76998;BME280;65930;48.874;10.734;2022-12-18T13:44:56;97219.59;;;-5.20;80.66
76998;BME280;65930;48.874;10.734;2022-12-18T13:47:34;97208.25;;;-5.22;80.71
76998;BME280;65930;48.874;10.734;2022-12-18T13:50:12;97212.56;;;-5.11;80.75
76998;BME280;65930;48.874;10.734;2022-12-18T13:52:45;97223.09;;;-5.15;80.55
76998;BME280;65930;48.874;10.734;2022-12-18T13:55:18;97220.97;;;-5.28;80.78
76998;BME280;65930;48.874;10.734;2022-12-18T13:57:44;97212.03;;;-5.49;81.59
76998;BME280;65930;48.874;10.734;2022-12-18T14:02:45;97218.53;;;-5.45;81.71
76998;BME280;65930;48.874;10.734;2022-12-18T14:05:29;97211.22;;;-5.39;81.96
76998;BME280;65930;48.874;10.734;2022-12-18T14:08:03;97210.41;;;-5.40;81.32
76998;BME280;65930;48.874;10.734;2022-12-18T14:10:30;97205.56;;;-5.32;81.70
76998;BME280;65930;48.874;10.734;2022-12-18T14:13:05;97200.44;;;-5.39;81.90
76998;BME280;65930;48.874;10.734;2022-12-18T14:15:39;97196.41;;;-5.37;81.55
76998;BME280;65930;48.874;10.734;2022-12-18T14:21:05;97189.06;;;-5.31;80.84
76998;BME280;65930;48.874;10.734;2022-12-18T14:23:33;97200.97;;;-5.37;81.33
76998;BME280;65930;48.874;10.734;2022-12-18T14:26:01;97197.47;;;-5.32;81.23
76998;BME280;65930;48.874;10.734;2022-12-18T14:28:27;97184.50;;;-5.46;81.16
76998;BME280;65930;48.874;10.734;2022-12-18T14:30:54;97192.06;;;-5.48;81.81
76998;BME280;65930;48.874;10.734;2022-12-18T14:33:21;97202.31;;;-5.45;81.59
76998;BME280;65930;48.874;10.734;2022-12-18T14:35:57;97200.16;;;-5.32;81.22
76998;BME280;65930;48.874;10.734;2022-12-18T14:38:33;97203.94;;;-5.49;81.27
76998;BME280;65930;48.874;10.734;2022-12-18T14:41:13;97199.34;;;-5.53;81.75
76998;BME280;65930;48.874;10.734;2022-12-18T14:43:42;97191.25;;;-5.58;81.76
76998;BME280;65930;48.874;10.734;2022-12-18T14:46:36;97201.53;;;-5.55;81.83
76998;BME280;65930;48.874;10.734;2022-12-18T14:49:14;97208.25;;;-5.73;82.81
76998;BME280;65930;48.874;10.734;2022-12-18T14:51:58;97203.41;;;-5.56;82.59
76998;BME280;65930;48.874;10.734;2022-12-18T14:54:31;97207.72;;;-5.55;82.17
76998;BME280;65930;48.874;10.734;2022-12-18T14:57:21;97212.59;;;-5.42;82.30
76998;BME280;65930;48.874;10.734;2022-12-18T14:59:47;97217.44;;;-5.34;81.67
76998;BME280;65930;48.874;10.734;2022-12-18T15:02:27;97208.28;;;-5.27;81.02
76998;BME280;65930;48.874;10.734;2022-12-18T15:05:21;97211.22;;;-5.39;81.98
76998;BME280;65930;48.874;10.734;2022-12-18T15:07:52;97200.16;;;-5.32;80.92
76998;BME280;65930;48.874;10.734;2022-12-18T15:10:24;97185.03;;;-5.28;80.77
76998;BME280;65930;48.874;10.734;2022-12-18T15:18:05;97183.97;;;-5.63;81.97